sensor_id;sensor_type;location;lat;lon;timestamp;temperature;humidity
31369;DHT22;18004;48.416;10.066;2023-02-15T00:02:16;0.20;99.90
31369;DHT22;18004;48.416;10.066;2023-02-15T00:04:41;0.30;99.90
31369;DHT22;18004;48.416;10.066;2023-02-15T00:07:17;0.20;99.90
31369;DHT22;18004;48.416;10.066;2023-02-15T00:09:46;0.30;99.90
31369;DHT22;18004;48.416;10.066;2023-02-15T00:12:12;0.30;99.90
31369;DHT22;18004;48.416;10.066;2023-02-15T00:14:38;0.20;99.90
31369;DHT22;18004;48.416;10.066;2023-02-15T00:17:03;0.20;99.90
31369;DHT22;18004;48.416;10.066;2023-02-15T00:19:29;0.20;99.90
31369;DHT22;18004;48.416;10.066;2023-02-15T00:21:55;0.10;99.90
31369;DHT22;18004;48.416;10.066;2023-02-15T00:24:21;0.10;99.90
31369;DHT22;18004;48.416;10.066;2023-02-15T00:26:46;0.10;99.90
31369;DHT22;18004;48.416;10.066;2023-02-15T00:29:13;0.10;99.90
31369;DHT22;18004;48.416;10.066;2023-02-15T00:31:38;0.20;99.90
31369;DHT22;18004;48.416;10.066;2023-02-15T00:34:05;0.20;99.90
31369;DHT22;18004;48.416;10.066;2023-02-15T00:36:31;0.30;99.90
31369;DHT22;18004;48.416;10.066;2023-02-15T00:38:57;0.30;99.90
31369;DHT22;18004;48.416;10.066;2023-02-15T00:41:22;0.30;99.90
31369;DHT22;18004;48.416;10.066;2023-02-15T00:43:48;0.40;99.90
31369;DHT22;18004;48.416;10.066;2023-02-15T00:46:14;0.40;99.90
31369;DHT22;18004;48.416;10.066;2023-02-15T00:48:39;0.40;99.90
31369;DHT22;18004;48.416;10.066;2023-02-15T00:51:05;0.40;99.90
31369;DHT22;18004;48.416;10.066;2023-02-15T00:53:30;0.40;99.90
31369;DHT22;18004;48.416;10.066;2023-02-15T00:55:56;0.40;99.90
31369;DHT22;18004;48.416;10.066;2023-02-15T00:58:22;0.40;99.90
31369;DHT22;18004;48.416;10.066;2023-02-15T01:00:48;0.40;99.90
31369;DHT22;18004;48.416;10.066;2023-02-15T01:03:14;0.30;99.90
31369;DHT22;18004;48.416;10.066;2023-02-15T01:05:40;0.30;99.90
31369;DHT22;18004;48.416;10.066;2023-02-15T01:08:06;0.20;99.90
31369;DHT22;18004;48.416;10.066;2023-02-15T01:10:33;0.10;99.90
31369;DHT22;18004;48.416;10.066;2023-02-15T01:12:59;0.10;99.90
31369;DHT22;18004;48.416;10.066;2023-02-15T01:15:24;0.00;99.90
31369;DHT22;18004;48.416;10.066;2023-02-15T01:17:50;0.00;99.90
31369;DHT22;18004;48.416;10.066;2023-02-15T01:20:19;0.00;99.90
31369;DHT22;18004;48.416;10.066;2023-02-15T01:22:45;0.00;99.90
31369;DHT22;18004;48.416;10.066;2023-02-15T01:25:11;0.00;99.90
31369;DHT22;18004;48.416;10.066;2023-02-15T01:27:36;0.00;99.90
31369;DHT22;18004;48.416;10.066;2023-02-15T01:30:02;-0.10;99.90
31369;DHT22;18004;48.416;10.066;2023-02-15T01:32:30;-0.10;99.90
31369;DHT22;18004;48.416;10.066;2023-02-15T01:34:55;-0.20;99.90
31369;DHT22;18004;48.416;10.066;2023-02-15T01:37:21;-0.30;99.90
31369;DHT22;18004;48.416;10.066;2023-02-15T01:39:47;-0.30;99.90
31369;DHT22;18004;48.416;10.066;2023-02-15T01:42:12;-0.30;99.90
31369;DHT22;18004;48.416;10.066;2023-02-15T01:44:55;-0.40;99.90
31369;DHT22;18004;48.416;10.066;2023-02-15T01:47:45;-0.40;99.90
31369;DHT22;18004;48.416;10.066;2023-02-15T01:50:13;-0.40;99.90
31369;DHT22;18004;48.416;10.066;2023-02-15T01:52:46;-0.30;99.90
31369;DHT22;18004;48.416;10.066;2023-02-15T01:55:14;-0.30;99.90
31369;DHT22;18004;48.416;10.066;2023-02-15T01:57:40;-0.20;99.90
31369;DHT22;18004;48.416;10.066;2023-02-15T02:00:06;-0.20;99.90
31369;DHT22;18004;48.416;10.066;2023-02-15T02:02:33;-0.20;99.90
31369;DHT22;18004;48.416;10.066;2023-02-15T02:05:00;-0.20;99.90
31369;DHT22;18004;48.416;10.066;2023-02-15T02:07:29;-0.20;99.90
31369;DHT22;18004;48.416;10.066;2023-02-15T02:09:55;-0.20;99.90
31369;DHT22;18004;48.416;10.066;2023-02-15T02:12:20;-0.10;99.90
31369;DHT22;18004;48.416;10.066;2023-02-15T02:14:47;0.00;99.90
31369;DHT22;18004;48.416;10.066;2023-02-15T02:17:17;0.00;99.90
31369;DHT22;18004;48.416;10.066;2023-02-15T02:34:50;-0.40;99.90
31369;DHT22;18004;48.416;10.066;2023-02-15T02:37:19;-0.30;99.90
31369;DHT22;18004;48.416;10.066;2023-02-15T02:45:06;-0.30;99.90
31369;DHT22;18004;48.416;10.066;2023-02-15T02:47:52;-0.30;99.90
31369;DHT22;18004;48.416;10.066;2023-02-15T02:50:22;-0.20;99.90
31369;DHT22;18004;48.416;10.066;2023-02-15T02:52:49;-0.20;99.90
31369;DHT22;18004;48.416;10.066;2023-02-15T02:56:18;-0.10;99.90
31369;DHT22;18004;48.416;10.066;2023-02-15T03:00:49;-0.30;99.90
31369;DHT22;18004;48.416;10.066;2023-02-15T03:03:20;-0.50;99.90
31369;DHT22;18004;48.416;10.066;2023-02-15T03:05:46;-0.40;99.90
31369;DHT22;18004;48.416;10.066;2023-02-15T03:08:14;-0.40;99.90
31369;DHT22;18004;48.416;10.066;2023-02-15T03:10:47;-0.20;99.90
31369;DHT22;18004;48.416;10.066;2023-02-15T03:13:13;-0.20;99.90
31369;DHT22;18004;48.416;10.066;2023-02-15T03:15:39;-0.30;99.90
31369;DHT22;18004;48.416;10.066;2023-02-15T03:18:28;-0.30;99.90
31369;DHT22;18004;48.416;10.066;2023-02-15T03:20:55;-0.40;99.90
31369;DHT22;18004;48.416;10.066;2023-02-15T03:23:23;-0.40;99.90
31369;DHT22;18004;48.416;10.066;2023-02-15T03:25:50;-0.50;99.90
31369;DHT22;18004;48.416;10.066;2023-02-15T03:28:21;-0.40;99.90
31369;DHT22;18004;48.416;10.066;2023-02-15T03:30:49;-0.40;99.90
31369;DHT22;18004;48.416;10.066;2023-02-15T03:33:17;-0.30;99.90
31369;DHT22;18004;48.416;10.066;2023-02-15T03:35:50;-0.30;99.90
31369;DHT22;18004;48.416;10.066;2023-02-15T03:38:20;-0.20;99.90
31369;DHT22;18004;48.416;10.066;2023-02-15T03:40:46;-0.20;99.90
31369;DHT22;18004;48.416;10.066;2023-02-15T03:48:41;-0.20;99.90
31369;DHT22;18004;48.416;10.066;2023-02-15T03:51:09;-0.20;99.90
31369;DHT22;18004;48.416;10.066;2023-02-15T03:53:56;-0.20;99.90
31369;DHT22;18004;48.416;10.066;2023-02-15T03:56:22;-0.20;99.90
31369;DHT22;18004;48.416;10.066;2023-02-15T03:58:48;-0.20;99.90
31369;DHT22;18004;48.416;10.066;2023-02-15T04:01:39;-0.30;99.90
31369;DHT22;18004;48.416;10.066;2023-02-15T04:04:28;-0.30;99.90
31369;DHT22;18004;48.416;10.066;2023-02-15T04:06:55;-0.30;99.90
31369;DHT22;18004;48.416;10.066;2023-02-15T04:09:21;-0.30;99.90
31369;DHT22;18004;48.416;10.066;2023-02-15T04:12:06;-0.30;99.90
31369;DHT22;18004;48.416;10.066;2023-02-15T04:14:31;-0.30;99.90
31369;DHT22;18004;48.416;10.066;2023-02-15T04:17:15;-0.30;99.90
31369;DHT22;18004;48.416;10.066;2023-02-15T04:19:41;-0.30;99.90
31369;DHT22;18004;48.416;10.066;2023-02-15T04:22:25;-0.40;99.90
31369;DHT22;18004;48.416;10.066;2023-02-15T04:25:09;-0.40;99.90
31369;DHT22;18004;48.416;10.066;2023-02-15T04:27:38;-0.30;99.90
31369;DHT22;18004;48.416;10.066;2023-02-15T04:30:04;-0.30;99.90
31369;DHT22;18004;48.416;10.066;2023-02-15T04:32:30;-0.50;99.90
31369;DHT22;18004;48.416;10.066;2023-02-15T04:34:56;-0.40;99.90
31369;DHT22;18004;48.416;10.066;2023-02-15T04:37:21;-0.40;99.90
31369;DHT22;18004;48.416;10.066;2023-02-15T04:39:47;-0.40;99.90
31369;DHT22;18004;48.416;10.066;2023-02-15T04:42:12;-0.40;99.90
31369;DHT22;18004;48.416;10.066;2023-02-15T04:44:38;-0.40;99.90
31369;DHT22;18004;48.416;10.066;2023-02-15T04:47:04;-0.40;99.90
31369;DHT22;18004;48.416;10.066;2023-02-15T04:49:29;-0.40;99.90
31369;DHT22;18004;48.416;10.066;2023-02-15T04:51:55;-0.40;99.90
31369;DHT22;18004;48.416;10.066;2023-02-15T04:54:20;-0.40;99.90
31369;DHT22;18004;48.416;10.066;2023-02-15T04:56:46;-0.40;99.90
31369;DHT22;18004;48.416;10.066;2023-02-15T04:59:12;-0.40;99.90
31369;DHT22;18004;48.416;10.066;2023-02-15T05:01:38;-0.30;99.90
31369;DHT22;18004;48.416;10.066;2023-02-15T05:04:04;-0.40;99.90
31369;DHT22;18004;48.416;10.066;2023-02-15T05:06:29;-0.40;99.90
31369;DHT22;18004;48.416;10.066;2023-02-15T05:08:55;-0.50;99.90
31369;DHT22;18004;48.416;10.066;2023-02-15T05:11:21;-0.50;99.90
31369;DHT22;18004;48.416;10.066;2023-02-15T05:13:46;-0.50;99.90
31369;DHT22;18004;48.416;10.066;2023-02-15T05:16:12;-0.50;99.90
31369;DHT22;18004;48.416;10.066;2023-02-15T05:18:38;-0.50;99.90
31369;DHT22;18004;48.416;10.066;2023-02-15T05:21:03;-0.50;99.90
31369;DHT22;18004;48.416;10.066;2023-02-15T05:23:29;-0.50;99.90
31369;DHT22;18004;48.416;10.066;2023-02-15T05:25:54;-0.40;99.90
31369;DHT22;18004;48.416;10.066;2023-02-15T05:28:39;-0.40;99.90
31369;DHT22;18004;48.416;10.066;2023-02-15T05:31:09;-0.40;99.90
31369;DHT22;18004;48.416;10.066;2023-02-15T05:33:35;-0.40;99.90
31369;DHT22;18004;48.416;10.066;2023-02-15T05:36:01;-0.40;99.90
31369;DHT22;18004;48.416;10.066;2023-02-15T05:38:28;-0.40;99.90
31369;DHT22;18004;48.416;10.066;2023-02-15T05:40:53;-0.50;99.90
31369;DHT22;18004;48.416;10.066;2023-02-15T05:43:19;-0.50;99.90
31369;DHT22;18004;48.416;10.066;2023-02-15T05:45:48;-0.50;99.90
31369;DHT22;18004;48.416;10.066;2023-02-15T05:48:15;-0.50;99.90
31369;DHT22;18004;48.416;10.066;2023-02-15T05:50:40;-0.50;99.90
31369;DHT22;18004;48.416;10.066;2023-02-15T05:53:06;-0.50;99.90
31369;DHT22;18004;48.416;10.066;2023-02-15T05:55:32;-0.50;99.90
31369;DHT22;18004;48.416;10.066;2023-02-15T05:57:57;-0.50;99.90
31369;DHT22;18004;48.416;10.066;2023-02-15T06:00:23;-0.50;99.90
31369;DHT22;18004;48.416;10.066;2023-02-15T06:02:49;-0.50;99.90
31369;DHT22;18004;48.416;10.066;2023-02-15T06:05:15;-0.50;99.90
31369;DHT22;18004;48.416;10.066;2023-02-15T06:07:42;-0.50;99.90
31369;DHT22;18004;48.416;10.066;2023-02-15T06:10:09;-0.60;99.90
31369;DHT22;18004;48.416;10.066;2023-02-15T06:12:34;-0.60;99.90
31369;DHT22;18004;48.416;10.066;2023-02-15T06:15:00;-0.60;99.90
31369;DHT22;18004;48.416;10.066;2023-02-15T06:17:25;-0.60;99.90
31369;DHT22;18004;48.416;10.066;2023-02-15T06:19:51;-0.60;99.90
31369;DHT22;18004;48.416;10.066;2023-02-15T06:22:17;-0.70;99.90
31369;DHT22;18004;48.416;10.066;2023-02-15T06:24:42;-0.70;99.90
31369;DHT22;18004;48.416;10.066;2023-02-15T06:27:09;-0.70;99.90
31369;DHT22;18004;48.416;10.066;2023-02-15T06:29:35;-0.70;99.90
31369;DHT22;18004;48.416;10.066;2023-02-15T06:32:01;-0.70;99.90
31369;DHT22;18004;48.416;10.066;2023-02-15T06:34:26;-0.70;99.90
31369;DHT22;18004;48.416;10.066;2023-02-15T06:36:52;-0.70;99.90
31369;DHT22;18004;48.416;10.066;2023-02-15T06:39:17;-0.70;99.90
31369;DHT22;18004;48.416;10.066;2023-02-15T06:41:43;-0.60;99.90
31369;DHT22;18004;48.416;10.066;2023-02-15T06:44:09;-0.60;99.90
31369;DHT22;18004;48.416;10.066;2023-02-15T06:46:34;-0.70;99.90
31369;DHT22;18004;48.416;10.066;2023-02-15T06:49:00;-0.70;99.90
31369;DHT22;18004;48.416;10.066;2023-02-15T06:51:26;-0.80;99.90
31369;DHT22;18004;48.416;10.066;2023-02-15T06:53:51;-0.70;99.90
31369;DHT22;18004;48.416;10.066;2023-02-15T06:56:17;-0.70;99.90
31369;DHT22;18004;48.416;10.066;2023-02-15T06:58:42;-0.70;99.90
31369;DHT22;18004;48.416;10.066;2023-02-15T07:01:08;-0.70;99.90
31369;DHT22;18004;48.416;10.066;2023-02-15T07:03:34;-0.70;99.90
31369;DHT22;18004;48.416;10.066;2023-02-15T07:06:02;-0.70;99.90
31369;DHT22;18004;48.416;10.066;2023-02-15T07:08:28;-0.80;99.90
31369;DHT22;18004;48.416;10.066;2023-02-15T07:10:54;-0.70;99.90
31369;DHT22;18004;48.416;10.066;2023-02-15T07:13:20;-0.80;99.90
31369;DHT22;18004;48.416;10.066;2023-02-15T07:15:46;-0.80;99.90
31369;DHT22;18004;48.416;10.066;2023-02-15T07:18:12;-0.80;99.90
31369;DHT22;18004;48.416;10.066;2023-02-15T07:20:38;-0.90;99.90
31369;DHT22;18004;48.416;10.066;2023-02-15T07:23:04;-0.80;99.90
31369;DHT22;18004;48.416;10.066;2023-02-15T07:25:30;-0.80;99.90
31369;DHT22;18004;48.416;10.066;2023-02-15T07:27:59;-0.80;99.90
31369;DHT22;18004;48.416;10.066;2023-02-15T07:30:25;-0.80;99.90
31369;DHT22;18004;48.416;10.066;2023-02-15T07:32:54;-0.70;99.90
31369;DHT22;18004;48.416;10.066;2023-02-15T07:35:45;-0.70;99.90
31369;DHT22;18004;48.416;10.066;2023-02-15T07:38:11;-0.70;99.90
31369;DHT22;18004;48.416;10.066;2023-02-15T07:40:36;-0.70;99.90
31369;DHT22;18004;48.416;10.066;2023-02-15T07:43:02;-0.70;99.90
31369;DHT22;18004;48.416;10.066;2023-02-15T07:45:28;-0.60;99.90
31369;DHT22;18004;48.416;10.066;2023-02-15T07:47:53;-0.60;99.90
31369;DHT22;18004;48.416;10.066;2023-02-15T07:50:19;-0.50;99.90
31369;DHT22;18004;48.416;10.066;2023-02-15T07:52:44;-0.50;99.90
31369;DHT22;18004;48.416;10.066;2023-02-15T07:55:10;-0.50;99.90
31369;DHT22;18004;48.416;10.066;2023-02-15T07:57:41;-0.50;99.90
31369;DHT22;18004;48.416;10.066;2023-02-15T08:00:07;-0.50;99.90
31369;DHT22;18004;48.416;10.066;2023-02-15T08:02:32;-0.50;99.90
31369;DHT22;18004;48.416;10.066;2023-02-15T08:04:59;-0.50;99.90
31369;DHT22;18004;48.416;10.066;2023-02-15T08:07:24;-0.40;99.90
31369;DHT22;18004;48.416;10.066;2023-02-15T08:09:50;-0.50;99.90
31369;DHT22;18004;48.416;10.066;2023-02-15T08:12:16;-0.40;99.90
31369;DHT22;18004;48.416;10.066;2023-02-15T08:14:41;-0.60;99.90
31369;DHT22;18004;48.416;10.066;2023-02-15T08:17:07;-0.60;99.90
31369;DHT22;18004;48.416;10.066;2023-02-15T08:19:33;-0.50;99.90
31369;DHT22;18004;48.416;10.066;2023-02-15T08:22:03;-0.50;99.90
31369;DHT22;18004;48.416;10.066;2023-02-15T08:24:31;-0.50;99.90
31369;DHT22;18004;48.416;10.066;2023-02-15T08:26:57;-0.50;99.90
31369;DHT22;18004;48.416;10.066;2023-02-15T08:29:24;-0.60;99.90
31369;DHT22;18004;48.416;10.066;2023-02-15T08:31:54;-0.50;99.90
31369;DHT22;18004;48.416;10.066;2023-02-15T08:34:24;-0.50;99.90
31369;DHT22;18004;48.416;10.066;2023-02-15T08:36:49;-0.50;99.90
31369;DHT22;18004;48.416;10.066;2023-02-15T08:39:16;-0.60;99.90
31369;DHT22;18004;48.416;10.066;2023-02-15T08:41:42;-0.50;99.90
31369;DHT22;18004;48.416;10.066;2023-02-15T08:44:09;-0.50;99.90
31369;DHT22;18004;48.416;10.066;2023-02-15T08:46:36;-0.40;99.90
31369;DHT22;18004;48.416;10.066;2023-02-15T08:49:02;-0.40;99.90
31369;DHT22;18004;48.416;10.066;2023-02-15T08:51:32;-0.40;99.90
31369;DHT22;18004;48.416;10.066;2023-02-15T08:53:59;-0.40;99.90
31369;DHT22;18004;48.416;10.066;2023-02-15T08:56:29;-0.40;99.90
31369;DHT22;18004;48.416;10.066;2023-02-15T08:58:55;-0.50;99.90
31369;DHT22;18004;48.416;10.066;2023-02-15T09:01:25;-0.50;99.90
31369;DHT22;18004;48.416;10.066;2023-02-15T09:03:53;-0.40;99.90
31369;DHT22;18004;48.416;10.066;2023-02-15T09:06:20;-0.40;99.90
31369;DHT22;18004;48.416;10.066;2023-02-15T09:08:46;-0.30;99.90
31369;DHT22;18004;48.416;10.066;2023-02-15T09:11:13;-0.20;99.90
31369;DHT22;18004;48.416;10.066;2023-02-15T09:13:42;-0.20;99.90
31369;DHT22;18004;48.416;10.066;2023-02-15T09:16:08;-0.30;99.90
31369;DHT22;18004;48.416;10.066;2023-02-15T09:18:36;-0.20;99.90
31369;DHT22;18004;48.416;10.066;2023-02-15T09:21:06;0.00;99.90
31369;DHT22;18004;48.416;10.066;2023-02-15T09:23:32;0.00;99.90
31369;DHT22;18004;48.416;10.066;2023-02-15T09:26:01;0.10;99.90
31369;DHT22;18004;48.416;10.066;2023-02-15T09:28:26;0.10;99.90
31369;DHT22;18004;48.416;10.066;2023-02-15T09:30:52;0.00;99.90
31369;DHT22;18004;48.416;10.066;2023-02-15T09:33:18;0.10;99.90
31369;DHT22;18004;48.416;10.066;2023-02-15T09:35:43;0.10;99.90
31369;DHT22;18004;48.416;10.066;2023-02-15T09:38:09;0.20;99.90
31369;DHT22;18004;48.416;10.066;2023-02-15T09:40:38;0.20;99.90
31369;DHT22;18004;48.416;10.066;2023-02-15T09:43:27;0.30;99.90
31369;DHT22;18004;48.416;10.066;2023-02-15T09:45:58;0.30;99.90
31369;DHT22;18004;48.416;10.066;2023-02-15T09:54:23;0.40;99.90
31369;DHT22;18004;48.416;10.066;2023-02-15T09:56:39;0.30;99.90
31369;DHT22;18004;48.416;10.066;2023-02-15T10:04:10;0.50;99.90
31369;DHT22;18004;48.416;10.066;2023-02-15T10:06:40;0.40;99.90
31369;DHT22;18004;48.416;10.066;2023-02-15T10:17:13;0.70;99.90
31369;DHT22;18004;48.416;10.066;2023-02-15T10:22:26;0.70;99.90
31369;DHT22;18004;48.416;10.066;2023-02-15T10:27:40;0.80;99.90
31369;DHT22;18004;48.416;10.066;2023-02-15T10:30:10;0.80;99.90
31369;DHT22;18004;48.416;10.066;2023-02-15T10:35:33;0.90;99.90
31369;DHT22;18004;48.416;10.066;2023-02-15T10:48:16;1.10;99.90
31369;DHT22;18004;48.416;10.066;2023-02-15T10:50:51;1.20;99.90
31369;DHT22;18004;48.416;10.066;2023-02-15T10:56:04;1.20;99.90
31369;DHT22;18004;48.416;10.066;2023-02-15T11:06:29;1.40;99.90
31369;DHT22;18004;48.416;10.066;2023-02-15T11:08:56;1.50;99.90
31369;DHT22;18004;48.416;10.066;2023-02-15T11:13:51;1.80;99.90
31369;DHT22;18004;48.416;10.066;2023-02-15T11:16:22;1.90;99.90
31369;DHT22;18004;48.416;10.066;2023-02-15T11:21:29;2.00;99.90
31369;DHT22;18004;48.416;10.066;2023-02-15T11:23:57;2.10;99.90
31369;DHT22;18004;48.416;10.066;2023-02-15T11:26:34;2.10;99.90
31369;DHT22;18004;48.416;10.066;2023-02-15T11:29:07;1.90;99.90
31369;DHT22;18004;48.416;10.066;2023-02-15T11:31:41;2.10;99.90
31369;DHT22;18004;48.416;10.066;2023-02-15T11:34:13;2.30;99.90
31369;DHT22;18004;48.416;10.066;2023-02-15T11:36:41;2.20;99.90
31369;DHT22;18004;48.416;10.066;2023-02-15T11:39:12;1.90;99.90
31369;DHT22;18004;48.416;10.066;2023-02-15T11:41:41;2.00;99.90
31369;DHT22;18004;48.416;10.066;2023-02-15T11:44:19;1.90;99.90
31369;DHT22;18004;48.416;10.066;2023-02-15T11:46:46;2.00;99.90
31369;DHT22;18004;48.416;10.066;2023-02-15T11:49:22;2.10;99.90
31369;DHT22;18004;48.416;10.066;2023-02-15T11:51:49;2.20;99.90
31369;DHT22;18004;48.416;10.066;2023-02-15T11:54:20;2.10;99.90
31369;DHT22;18004;48.416;10.066;2023-02-15T11:56:47;2.20;99.90
31369;DHT22;18004;48.416;10.066;2023-02-15T11:59:14;2.60;99.90
31369;DHT22;18004;48.416;10.066;2023-02-15T12:01:44;2.70;99.90
31369;DHT22;18004;48.416;10.066;2023-02-15T12:04:20;2.60;99.90
31369;DHT22;18004;48.416;10.066;2023-02-15T12:06:49;2.70;99.90
31369;DHT22;18004;48.416;10.066;2023-02-15T12:12:25;2.60;99.90
31369;DHT22;18004;48.416;10.066;2023-02-15T12:14:52;2.80;99.90
31369;DHT22;18004;48.416;10.066;2023-02-15T12:17:20;3.10;99.90
31369;DHT22;18004;48.416;10.066;2023-02-15T12:19:47;3.00;99.90
31369;DHT22;18004;48.416;10.066;2023-02-15T12:22:20;3.10;99.90
31369;DHT22;18004;48.416;10.066;2023-02-15T12:24:47;3.20;99.90
31369;DHT22;18004;48.416;10.066;2023-02-15T12:27:15;3.20;99.90
31369;DHT22;18004;48.416;10.066;2023-02-15T12:29:41;3.40;99.90
31369;DHT22;18004;48.416;10.066;2023-02-15T12:32:15;3.70;99.90
31369;DHT22;18004;48.416;10.066;2023-02-15T12:34:41;3.90;99.90
31369;DHT22;18004;48.416;10.066;2023-02-15T12:37:10;3.80;99.90
31369;DHT22;18004;48.416;10.066;2023-02-15T12:39:41;4.00;99.90
31369;DHT22;18004;48.416;10.066;2023-02-15T12:42:16;4.20;99.90
31369;DHT22;18004;48.416;10.066;2023-02-15T12:45:02;4.20;99.90
31369;DHT22;18004;48.416;10.066;2023-02-15T12:47:28;4.50;99.90
31369;DHT22;18004;48.416;10.066;2023-02-15T12:50:12;4.80;99.90
31369;DHT22;18004;48.416;10.066;2023-02-15T12:52:48;4.80;99.90
31369;DHT22;18004;48.416;10.066;2023-02-15T12:55:18;4.90;99.90
31369;DHT22;18004;48.416;10.066;2023-02-15T12:57:44;5.00;99.90
31369;DHT22;18004;48.416;10.066;2023-02-15T13:02:51;5.40;99.90
31369;DHT22;18004;48.416;10.066;2023-02-15T13:05:37;5.60;99.90
31369;DHT22;18004;48.416;10.066;2023-02-15T13:08:09;5.80;99.90
31369;DHT22;18004;48.416;10.066;2023-02-15T13:10:37;5.90;99.90
31369;DHT22;18004;48.416;10.066;2023-02-15T13:13:14;6.00;99.90
31369;DHT22;18004;48.416;10.066;2023-02-15T13:15:44;6.10;99.20
31369;DHT22;18004;48.416;10.066;2023-02-15T13:18:20;6.00;96.60
31369;DHT22;18004;48.416;10.066;2023-02-15T13:20:49;5.80;96.30
31369;DHT22;18004;48.416;10.066;2023-02-15T13:23:24;5.90;97.80
31369;DHT22;18004;48.416;10.066;2023-02-15T13:25:52;6.20;99.90
31369;DHT22;18004;48.416;10.066;2023-02-15T13:28:20;6.40;98.40
31369;DHT22;18004;48.416;10.066;2023-02-15T13:30:48;6.60;99.50
31369;DHT22;18004;48.416;10.066;2023-02-15T13:33:25;6.70;98.00
31369;DHT22;18004;48.416;10.066;2023-02-15T13:36:07;6.90;96.70
31369;DHT22;18004;48.416;10.066;2023-02-15T13:41:02;6.70;93.80
31369;DHT22;18004;48.416;10.066;2023-02-15T13:43:39;6.80;95.70
31369;DHT22;18004;48.416;10.066;2023-02-15T13:46:11;7.00;95.80
31369;DHT22;18004;48.416;10.066;2023-02-15T13:48:44;6.90;92.50
31369;DHT22;18004;48.416;10.066;2023-02-15T13:51:13;6.90;92.00
31369;DHT22;18004;48.416;10.066;2023-02-15T13:59:28;7.10;92.60
31369;DHT22;18004;48.416;10.066;2023-02-15T14:07:16;7.50;92.70
31369;DHT22;18004;48.416;10.066;2023-02-15T14:15:19;7.50;91.20
31369;DHT22;18004;48.416;10.066;2023-02-15T14:23:07;7.70;92.40
31369;DHT22;18004;48.416;10.066;2023-02-15T14:25:39;7.60;90.30
31369;DHT22;18004;48.416;10.066;2023-02-15T14:28:25;7.70;91.30
31369;DHT22;18004;48.416;10.066;2023-02-15T14:30:53;7.70;90.80
31369;DHT22;18004;48.416;10.066;2023-02-15T14:35:45;7.50;91.20
31369;DHT22;18004;48.416;10.066;2023-02-15T14:46:25;8.20;93.90
31369;DHT22;18004;48.416;10.066;2023-02-15T14:48:53;8.30;91.60
31369;DHT22;18004;48.416;10.066;2023-02-15T14:54:05;8.30;87.60
31369;DHT22;18004;48.416;10.066;2023-02-15T14:56:31;8.20;89.30
31369;DHT22;18004;48.416;10.066;2023-02-15T14:59:16;8.10;89.00
31369;DHT22;18004;48.416;10.066;2023-02-15T15:01:50;8.10;92.90
31369;DHT22;18004;48.416;10.066;2023-02-15T15:05:18;8.20;89.50
31369;DHT22;18004;48.416;10.066;2023-02-15T15:09:38;7.90;85.00
31369;DHT22;18004;48.416;10.066;2023-02-15T15:14:43;7.80;90.40
31369;DHT22;18004;48.416;10.066;2023-02-15T15:17:13;7.80;93.20
31369;DHT22;18004;48.416;10.066;2023-02-15T15:29:53;7.30;95.80
31369;DHT22;18004;48.416;10.066;2023-02-15T15:32:19;7.30;96.00
31369;DHT22;18004;48.416;10.066;2023-02-15T15:50:40;6.40;99.90
31369;DHT22;18004;48.416;10.066;2023-02-15T15:53:06;6.40;99.90
31369;DHT22;18004;48.416;10.066;2023-02-15T15:55:32;6.20;99.90
31369;DHT22;18004;48.416;10.066;2023-02-15T15:58:00;6.30;99.90
31369;DHT22;18004;48.416;10.066;2023-02-15T16:00:32;6.10;99.90
31369;DHT22;18004;48.416;10.066;2023-02-15T16:02:59;5.90;99.90
31369;DHT22;18004;48.416;10.066;2023-02-15T16:05:25;5.90;99.90
31369;DHT22;18004;48.416;10.066;2023-02-15T16:07:51;5.70;99.90
31369;DHT22;18004;48.416;10.066;2023-02-15T16:10:24;5.70;99.90
31369;DHT22;18004;48.416;10.066;2023-02-15T16:12:50;5.50;99.90
31369;DHT22;18004;48.416;10.066;2023-02-15T16:15:17;5.50;99.90
31369;DHT22;18004;48.416;10.066;2023-02-15T16:17:44;5.50;99.90
31369;DHT22;18004;48.416;10.066;2023-02-15T16:20:14;5.50;99.90
31369;DHT22;18004;48.416;10.066;2023-02-15T16:22:44;5.40;99.90
31369;DHT22;18004;48.416;10.066;2023-02-15T16:25:23;5.20;99.90
31369;DHT22;18004;48.416;10.066;2023-02-15T16:27:51;5.10;99.90
31369;DHT22;18004;48.416;10.066;2023-02-15T16:30:25;5.00;99.90
31369;DHT22;18004;48.416;10.066;2023-02-15T16:35:52;4.90;99.90
31369;DHT22;18004;48.416;10.066;2023-02-15T16:38:19;4.70;99.90
31369;DHT22;18004;48.416;10.066;2023-02-15T16:40:48;4.70;99.90
31369;DHT22;18004;48.416;10.066;2023-02-15T16:43:16;4.60;99.90
31369;DHT22;18004;48.416;10.066;2023-02-15T16:45:42;4.70;99.90
31369;DHT22;18004;48.416;10.066;2023-02-15T16:48:10;4.60;99.90
31369;DHT22;18004;48.416;10.066;2023-02-15T16:50:37;4.60;99.90
31369;DHT22;18004;48.416;10.066;2023-02-15T16:53:04;4.50;99.90
31369;DHT22;18004;48.416;10.066;2023-02-15T16:55:32;4.50;99.90
31369;DHT22;18004;48.416;10.066;2023-02-15T16:58:01;4.40;99.90
31369;DHT22;18004;48.416;10.066;2023-02-15T17:00:34;4.30;99.90
31369;DHT22;18004;48.416;10.066;2023-02-15T17:03:05;4.30;99.90
31369;DHT22;18004;48.416;10.066;2023-02-15T17:05:53;4.10;99.90
31369;DHT22;18004;48.416;10.066;2023-02-15T17:08:27;4.00;99.90
31369;DHT22;18004;48.416;10.066;2023-02-15T17:13:26;3.80;99.90
31369;DHT22;18004;48.416;10.066;2023-02-15T17:18:23;3.70;99.90
31369;DHT22;18004;48.416;10.066;2023-02-15T17:20:50;3.60;99.90
31369;DHT22;18004;48.416;10.066;2023-02-15T17:23:20;3.50;99.90
31369;DHT22;18004;48.416;10.066;2023-02-15T17:25:46;3.50;99.90
31369;DHT22;18004;48.416;10.066;2023-02-15T17:28:19;3.30;99.90
31369;DHT22;18004;48.416;10.066;2023-02-15T17:30:45;3.30;99.90
31369;DHT22;18004;48.416;10.066;2023-02-15T17:33:20;3.10;99.90
31369;DHT22;18004;48.416;10.066;2023-02-15T17:36:01;3.00;99.90
31369;DHT22;18004;48.416;10.066;2023-02-15T17:38:27;2.90;99.90
31369;DHT22;18004;48.416;10.066;2023-02-15T17:40:52;2.70;99.90
31369;DHT22;18004;48.416;10.066;2023-02-15T17:43:18;2.60;99.90
31369;DHT22;18004;48.416;10.066;2023-02-15T17:45:46;2.60;99.90
31369;DHT22;18004;48.416;10.066;2023-02-15T17:48:16;2.60;99.90
31369;DHT22;18004;48.416;10.066;2023-02-15T17:50:44;2.60;99.90
31369;DHT22;18004;48.416;10.066;2023-02-15T17:53:09;2.60;99.90
31369;DHT22;18004;48.416;10.066;2023-02-15T17:55:35;2.70;99.90
31369;DHT22;18004;48.416;10.066;2023-02-15T17:58:05;2.60;99.90
31369;DHT22;18004;48.416;10.066;2023-02-15T18:00:31;2.50;99.90
31369;DHT22;18004;48.416;10.066;2023-02-15T18:03:17;2.50;99.90
31369;DHT22;18004;48.416;10.066;2023-02-15T18:06:01;2.60;99.90
31369;DHT22;18004;48.416;10.066;2023-02-15T18:08:46;2.50;99.90
31369;DHT22;18004;48.416;10.066;2023-02-15T18:11:30;2.40;99.90
31369;DHT22;18004;48.416;10.066;2023-02-15T18:14:00;2.40;99.90
31369;DHT22;18004;48.416;10.066;2023-02-15T18:16:27;2.30;99.90
31369;DHT22;18004;48.416;10.066;2023-02-15T18:18:53;2.40;99.90
31369;DHT22;18004;48.416;10.066;2023-02-15T18:21:19;2.30;99.90